Janesville Atmospheric Data: 03/22/2019 Summary  Detailed Graphs  Station List

  Temperature     Wind Precipitation Visibility
Timestamp Air Wet
Bulb
Dew-
point
24-hr
Max
24-hr
Min
Relative
Humidity
Atmospheric
Pressure
Avg
Speed
Avg
Dir
Spot
Speed
Spot
Dir
Max
Speed
Max
Dir
  Rate Situation Start End 1 hr 3 hr 6 hr 12 hr 24 hr   Situation
Date Time °F °F °F °F °F % in Hg mph ° mph ° mph ° Y/N in/hr text Date Time Date Time in in in in in mi text
03/22/2019 12:13 AM 40.46 36.14 30.20 55.76 28.58 67.0 Not Reported 6.71 W 4.92 SW 6.49 NW No 0.000 No Precipitation 03/21/2019 01:06 AM 03/21/2019 01:11 AM 0.000 0.000 0.000 0.000 0.004 Not Reported Not Reported
03/22/2019 12:28 AM 41.18 36.50 29.84 55.76 28.58 63.0 Not Reported 3.36 W 5.37 W 6.93 SW No 0.000 No Precipitation 03/21/2019 01:06 AM 03/21/2019 01:11 AM 0.000 0.000 0.000 0.000 0.004 Not Reported Not Reported
03/22/2019 12:43 AM 38.66 35.06 29.84 55.76 28.58 70.0 Not Reported 2.46 N 4.47 N 6.04 NW No 0.000 No Precipitation 03/21/2019 01:06 AM 03/21/2019 01:11 AM 0.000 0.000 0.000 0.000 0.004 Not Reported Not Reported
03/22/2019 12:58 AM 39.02 35.24 30.02 55.76 28.58 69.0 Not Reported 3.58 NW 4.25 N 7.16 W No 0.000 No Precipitation 03/21/2019 01:06 AM 03/21/2019 01:11 AM 0.000 0.000 0.000 0.000 0.004 Not Reported Not Reported
03/22/2019 01:13 AM 38.12 34.70 30.02 55.76 28.58 71.0 Not Reported 5.82 N 4.47 NW 7.61 NW No 0.000 No Precipitation 03/21/2019 01:06 AM 03/21/2019 01:11 AM 0.000 0.000 0.000 0.000 0.004 Not Reported Not Reported
03/22/2019 01:28 AM 35.60 33.26 29.84 55.76 28.58 78.0 Not Reported 3.13 E 4.92 E 4.03 E No 0.000 No Precipitation 03/21/2019 01:06 AM 03/21/2019 01:11 AM 0.000 0.000 0.000 0.000 0.004 Not Reported Not Reported
03/22/2019 01:43 AM 35.60 33.08 29.66 55.76 28.58 78.0 Not Reported 1.79 S 2.46 SE 4.92 E No 0.000 No Precipitation 03/21/2019 01:06 AM 03/21/2019 01:11 AM 0.000 0.000 0.000 0.000 0.004 Not Reported Not Reported
03/22/2019 01:58 AM 33.44 31.82 28.94 55.76 28.58 83.0 Not Reported 1.79 S 0.67 SW 2.24 S No 0.000 No Precipitation 03/21/2019 01:06 AM 03/21/2019 01:11 AM 0.000 0.000 0.000 0.000 0.004 Not Reported Not Reported
03/22/2019 02:13 AM 34.34 32.36 29.66 55.76 28.58 83.0 Not Reported 5.14 W 3.80 N 5.59 SW No 0.000 No Precipitation 03/21/2019 01:06 AM 03/21/2019 01:11 AM 0.000 0.000 0.000 0.000 0.000 Not Reported Not Reported
03/22/2019 02:28 AM 34.88 33.08 30.38 55.76 28.58 82.0 Not Reported 2.01 SW 4.70 N 5.14 SW No 0.000 No Precipitation 03/21/2019 01:06 AM 03/21/2019 01:11 AM 0.000 0.000 0.000 0.000 0.000 Not Reported Not Reported
03/22/2019 02:43 AM 34.16 32.18 29.66 55.76 28.58 81.0 Not Reported 3.80 SE 0.89 SW 6.49 N No 0.000 No Precipitation 03/21/2019 01:06 AM 03/21/2019 01:11 AM 0.000 0.000 0.000 0.000 0.000 Not Reported Not Reported
03/22/2019 02:58 AM 33.80 31.82 28.58 55.76 28.58 80.0 Not Reported 3.80 E 2.01 S 5.14 E No 0.000 No Precipitation 03/21/2019 01:06 AM 03/21/2019 01:11 AM 0.000 0.000 0.000 0.000 0.000 Not Reported Not Reported
03/22/2019 03:13 AM 33.26 31.64 28.94 55.76 28.58 84.0 Not Reported 2.91 NE 3.58 E 5.14 S No 0.000 No Precipitation 03/21/2019 01:06 AM 03/21/2019 01:11 AM 0.000 0.000 0.000 0.000 0.000 Not Reported Not Reported
03/22/2019 03:28 AM 36.14 33.44 29.66 55.76 28.58 75.0 Not Reported 3.13 E 3.36 E 5.14 SE No 0.000 No Precipitation 03/21/2019 01:06 AM 03/21/2019 01:11 AM 0.000 0.000 0.000 0.000 0.000 Not Reported Not Reported
03/22/2019 03:43 AM 33.62 31.64 28.04 55.76 28.58 79.0 Not Reported 2.24 SW 2.91 SE 3.36 E No 0.000 No Precipitation 03/21/2019 01:06 AM 03/21/2019 01:11 AM 0.000 0.000 0.000 0.000 0.000 Not Reported Not Reported
03/22/2019 03:58 AM 34.34 32.00 28.40 55.76 28.58 78.0 Not Reported 2.01 S 3.36 SE 8.28 SE No 0.000 No Precipitation 03/21/2019 01:06 AM 03/21/2019 01:11 AM 0.000 0.000 0.000 0.000 0.000 Not Reported Not Reported
03/22/2019 04:13 AM 32.00 30.56 27.86 55.76 28.58 82.0 Not Reported 1.79 SW 2.91 W 4.25 E No 0.000 No Precipitation 03/21/2019 01:06 AM 03/21/2019 01:11 AM 0.000 0.000 0.000 0.000 0.000 Not Reported Not Reported
03/22/2019 04:28 AM 32.00 30.02 26.96 55.76 28.58 81.0 Not Reported 0.45 E 1.34 E 4.25 W No 0.000 No Precipitation 03/21/2019 01:06 AM 03/21/2019 01:11 AM 0.000 0.000 0.000 0.000 0.000 Not Reported Not Reported
03/22/2019 04:43 AM 31.28 29.48 26.42 55.76 28.58 81.0 Not Reported 2.01 SW 2.68 S 5.59 SW No 0.000 No Precipitation 03/21/2019 01:06 AM 03/21/2019 01:11 AM 0.000 0.000 0.000 0.000 0.000 Not Reported Not Reported
03/22/2019 04:58 AM 29.66 28.22 25.52 55.76 28.58 84.0 Not Reported 3.13 S 3.13 SE 4.25 SW No 0.000 No Precipitation 03/21/2019 01:06 AM 03/21/2019 01:11 AM 0.000 0.000 0.000 0.000 0.000 Not Reported Not Reported
03/22/2019 05:13 AM 30.02 28.40 25.52 55.76 28.58 83.0 Not Reported 3.36 SE 1.34 W 5.59 SW No 0.000 No Precipitation 03/21/2019 01:06 AM 03/21/2019 01:11 AM 0.000 0.000 0.000 0.000 0.000 Not Reported Not Reported
03/22/2019 05:28 AM 30.02 28.22 24.98 55.76 28.58 82.0 Not Reported 4.92 SW 4.25 S 5.37 SW No 0.000 No Precipitation 03/21/2019 01:06 AM 03/21/2019 01:11 AM 0.000 0.000 0.000 0.000 0.000 Not Reported Not Reported
03/22/2019 05:43 AM 28.58 27.32 24.80 55.76 28.58 85.0 Not Reported 1.57 S 1.12 SW 5.14 S No 0.000 No Precipitation 03/21/2019 01:06 AM 03/21/2019 01:11 AM 0.000 0.000 0.000 0.000 0.000 Not Reported Not Reported
03/22/2019 05:58 AM 30.20 28.40 25.16 55.76 28.58 80.0 Not Reported 0.45 SW 2.24 W 8.05 SW No 0.000 No Precipitation 03/21/2019 01:06 AM 03/21/2019 01:11 AM 0.000 0.000 0.000 0.000 0.000 Not Reported Not Reported
03/22/2019 06:13 AM 29.48 28.04 25.34 55.76 28.58 84.0 Not Reported 3.36 SW 1.12 W 3.80 W No 0.000 No Precipitation 03/21/2019 01:06 AM 03/21/2019 01:11 AM 0.000 0.000 0.000 0.000 0.000 Not Reported Not Reported
03/22/2019 06:28 AM 28.40 26.96 24.26 55.76 28.58 84.0 Not Reported 2.91 SE 2.24 S 4.70 S No 0.000 No Precipitation 03/21/2019 01:06 AM 03/21/2019 01:11 AM 0.000 0.000 0.000 0.000 0.000 Not Reported Not Reported
03/22/2019 06:43 AM 27.50 26.42 24.62 55.76 28.58 88.0 Not Reported 4.25 SW 4.70 W 3.58 SW No 0.000 No Precipitation 03/21/2019 01:06 AM 03/21/2019 01:11 AM 0.000 0.000 0.000 0.000 0.000 Not Reported Not Reported
03/22/2019 06:58 AM 27.68 26.78 24.80 55.76 28.58 87.0 Not Reported 2.24 S 3.13 S 6.04 W No 0.000 No Precipitation 03/21/2019 01:06 AM 03/21/2019 01:11 AM 0.000 0.000 0.000 0.000 0.000 Not Reported Not Reported
03/22/2019 07:13 AM 27.86 26.42 23.54 55.76 28.58 84.0 Not Reported 1.34 W 1.34 S 6.26 NW No 0.000 No Precipitation 03/21/2019 01:06 AM 03/21/2019 01:11 AM 0.000 0.000 0.000 0.000 0.000 Not Reported Not Reported
03/22/2019 07:28 AM 27.14 26.24 24.44 55.76 28.58 88.0 Not Reported 7.16 W 5.82 SW 7.61 W No 0.000 No Precipitation 03/21/2019 01:06 AM 03/21/2019 01:11 AM 0.000 0.000 0.000 0.000 0.000 Not Reported Not Reported
03/22/2019 07:43 AM 27.32 26.24 24.08 55.76 28.58 87.0 Not Reported 1.79 SW 2.68 W 6.49 W No 0.000 No Precipitation 03/21/2019 01:06 AM 03/21/2019 01:11 AM 0.000 0.000 0.000 0.000 0.000 Not Reported Not Reported
03/22/2019 07:58 AM 26.06 25.16 23.54 55.76 28.58 90.0 Not Reported 1.79 S 1.57 S 4.47 SW No 0.000 No Precipitation 03/21/2019 01:06 AM 03/21/2019 01:11 AM 0.000 0.000 0.000 0.000 0.000 Not Reported Not Reported
03/22/2019 08:13 AM 27.32 26.24 24.26 55.76 28.58 88.0 Not Reported 2.46 S 3.58 S 3.58 SW No 0.000 No Precipitation 03/21/2019 01:06 AM 03/21/2019 01:11 AM 0.000 0.000 0.000 0.000 0.000 Not Reported Not Reported
03/22/2019 08:28 AM 29.30 27.86 25.34 55.76 28.58 85.0 Not Reported 3.13 SW 2.01 SE 4.70 W No 0.000 No Precipitation 03/21/2019 01:06 AM 03/21/2019 01:11 AM 0.000 0.000 0.000 0.000 0.000 Not Reported Not Reported
03/22/2019 08:43 AM 32.00 30.20 26.60 55.76 28.58 79.0 Not Reported 3.36 SW 1.12 NW 3.80 S No 0.000 No Precipitation 03/21/2019 01:06 AM 03/21/2019 01:11 AM 0.000 0.000 0.000 0.000 0.000 Not Reported Not Reported
03/22/2019 08:58 AM 32.54 30.74 27.50 55.76 28.58 81.0 Not Reported 2.68 S 2.68 SE 3.80 E No 0.000 No Precipitation 03/21/2019 01:06 AM 03/21/2019 01:11 AM 0.000 0.000 0.000 0.000 0.000 Not Reported Not Reported
03/22/2019 09:13 AM 34.16 31.82 27.68 55.76 28.58 76.0 Not Reported 2.46 S 2.68 SW 3.13 SE No 0.000 No Precipitation 03/21/2019 01:06 AM 03/21/2019 01:11 AM 0.000 0.000 0.000 0.000 0.000 Not Reported Not Reported
03/22/2019 09:28 AM 34.34 32.00 28.40 55.76 28.58 78.0 Not Reported 1.12 SW 1.34 SW 2.24 SW No 0.000 No Precipitation 03/21/2019 01:06 AM 03/21/2019 01:11 AM 0.000 0.000 0.000 0.000 0.000 Not Reported Not Reported
03/22/2019 09:43 AM 36.86 33.62 28.58 55.76 28.58 70.0 Not Reported 2.01 NW 1.57 NW 2.68 W No 0.000 No Precipitation 03/21/2019 01:06 AM 03/21/2019 01:11 AM 0.000 0.000 0.000 0.000 0.000 Not Reported Not Reported
03/22/2019 09:58 AM 38.12 34.16 28.22 55.76 28.58 66.0 Not Reported 2.24 N 1.79 NW 2.68 N No 0.000 No Precipitation 03/21/2019 01:06 AM 03/21/2019 01:11 AM 0.000 0.000 0.000 0.000 0.000 Not Reported Not Reported
03/22/2019 10:13 AM 39.56 35.06 28.76 55.76 28.58 63.0 Not Reported 2.46 N 2.24 N 2.46 NW No 0.000 No Precipitation 03/21/2019 01:06 AM 03/21/2019 01:11 AM 0.000 0.000 0.000 0.000 0.000 Not Reported Not Reported
03/22/2019 10:28 AM 41.72 35.78 26.96 55.76 28.58 57.0 Not Reported 4.47 NE 4.03 E 6.04 NE No 0.000 No Precipitation 03/21/2019 01:06 AM 03/21/2019 01:11 AM 0.000 0.000 0.000 0.000 0.000 Not Reported Not Reported
03/22/2019 10:43 AM 42.62 36.32 27.14 55.76 28.58 52.0 Not Reported 5.37 E 3.36 E 7.38 NE No 0.000 No Precipitation 03/21/2019 01:06 AM 03/21/2019 01:11 AM 0.000 0.000 0.000 0.000 0.000 Not Reported Not Reported
03/22/2019 10:58 AM 42.62 36.14 26.24 55.76 28.58 48.0 Not Reported 3.80 E 6.71 NE 6.93 NE No 0.000 No Precipitation 03/21/2019 01:06 AM 03/21/2019 01:11 AM 0.000 0.000 0.000 0.000 0.000 Not Reported Not Reported
03/22/2019 11:13 AM 43.34 36.86 26.96 55.76 28.58 52.0 Not Reported 2.91 NE 5.59 E 6.71 NE No 0.000 No Precipitation 03/21/2019 01:06 AM 03/21/2019 01:11 AM 0.000 0.000 0.000 0.000 0.000 Not Reported Not Reported
03/22/2019 11:28 AM 43.34 36.68 26.96 55.76 28.58 50.0 Not Reported 3.36 E 3.13 NE 5.14 E No 0.000 No Precipitation 03/21/2019 01:06 AM 03/21/2019 01:11 AM 0.000 0.000 0.000 0.000 0.000 Not Reported Not Reported
03/22/2019 11:43 AM 44.24 36.86 25.34 55.76 28.58 46.0 Not Reported 5.37 E 6.49 NE 6.26 NE No 0.000 No Precipitation 03/21/2019 01:06 AM 03/21/2019 01:11 AM 0.000 0.000 0.000 0.000 0.000 Not Reported Not Reported
03/22/2019 11:58 AM 44.60 36.68 24.62 55.76 28.58 46.0 Not Reported 5.37 N 3.36 SE 6.71 N No 0.000 No Precipitation 03/21/2019 01:06 AM 03/21/2019 01:11 AM 0.000 0.000 0.000 0.000 0.000 Not Reported Not Reported
03/22/2019 12:13 PM 44.42 36.86 24.98 55.76 28.58 45.0 Not Reported 6.49 N 6.93 N 7.16 NE No 0.000 No Precipitation 03/21/2019 01:06 AM 03/21/2019 01:11 AM 0.000 0.000 0.000 0.000 0.000 Not Reported Not Reported
03/22/2019 12:28 PM 44.96 36.68 23.72 55.76 28.58 43.0 Not Reported 5.14 N 5.14 N 9.84 N No 0.000 No Precipitation 03/21/2019 01:06 AM 03/21/2019 01:11 AM 0.000 0.000 0.000 0.000 0.000 Not Reported Not Reported
03/22/2019 12:43 PM 45.50 37.22 24.62 55.76 28.58 44.0 Not Reported 6.93 N 5.82 NE 6.26 NE No 0.000 No Precipitation 03/21/2019 01:06 AM 03/21/2019 01:11 AM 0.000 0.000 0.000 0.000 0.000 Not Reported Not Reported
03/22/2019 12:58 PM 45.14 37.04 24.44 55.76 28.58 43.0 Not Reported 4.70 NE 2.01 NE 8.50 N No 0.000 No Precipitation 03/21/2019 01:06 AM 03/21/2019 01:11 AM 0.000 0.000 0.000 0.000 0.000 Not Reported Not Reported
03/22/2019 01:13 PM 45.14 37.04 24.62 55.76 28.58 44.0 Not Reported 2.91 NE 4.47 NE 9.17 E No 0.000 No Precipitation 03/21/2019 01:06 AM 03/21/2019 01:11 AM 0.000 0.000 0.000 0.000 0.000 Not Reported Not Reported
03/22/2019 01:28 PM 46.04 37.94 26.06 55.76 28.58 44.0 Not Reported 4.70 E 2.46 NE 7.61 E No 0.000 No Precipitation 03/21/2019 01:06 AM 03/21/2019 01:11 AM 0.000 0.000 0.000 0.000 0.000 Not Reported Not Reported
03/22/2019 01:43 PM 46.22 38.12 26.60 55.76 28.58 45.0 Not Reported 5.37 NW 5.14 NW 5.59 N No 0.000 No Precipitation 03/21/2019 01:06 AM 03/21/2019 01:11 AM 0.000 0.000 0.000 0.000 0.000 Not Reported Not Reported
03/22/2019 01:58 PM 46.04 38.12 26.60 55.76 28.58 45.0 Not Reported 4.25 W 6.49 NW 9.84 NE No 0.000 No Precipitation 03/21/2019 01:06 AM 03/21/2019 01:11 AM 0.000 0.000 0.000 0.000 0.000 Not Reported Not Reported
03/22/2019 02:13 PM 46.22 38.12 26.42 55.76 28.58 45.0 Not Reported 4.25 N 6.49 NE 9.17 NW No 0.000 No Precipitation 03/21/2019 01:06 AM 03/21/2019 01:11 AM 0.000 0.000 0.000 0.000 0.000 Not Reported Not Reported
03/22/2019 02:28 PM 46.04 38.12 26.60 55.76 28.58 46.0 Not Reported 2.46 N 3.13 NW 5.59 NE No 0.000 No Precipitation 03/21/2019 01:06 AM 03/21/2019 01:11 AM 0.000 0.000 0.000 0.000 0.000 Not Reported Not Reported
03/22/2019 02:43 PM 46.04 38.66 28.04 55.76 28.58 50.0 Not Reported 5.82 W 4.92 NW 6.71 NW No 0.000 No Precipitation 03/21/2019 01:06 AM 03/21/2019 01:11 AM 0.000 0.000 0.000 0.000 0.000 Not Reported Not Reported
03/22/2019 02:58 PM 46.22 38.66 28.04 55.76 28.58 48.0 Not Reported 2.91 NW 2.91 N 12.30 W No 0.000 No Precipitation 03/21/2019 01:06 AM 03/21/2019 01:11 AM 0.000 0.000 0.000 0.000 0.000 Not Reported Not Reported
03/22/2019 03:13 PM 46.76 39.02 28.22 55.76 28.58 48.0 Not Reported 8.05 NW 6.49 NW 10.07 SW No 0.000 No Precipitation 03/21/2019 01:06 AM 03/21/2019 01:11 AM 0.000 0.000 0.000 0.000 0.000 Not Reported Not Reported
03/22/2019 03:28 PM 47.66 39.74 28.94 55.76 28.58 48.0 Not Reported 7.38 S 8.50 SW 9.40 S No 0.000 No Precipitation 03/21/2019 01:06 AM 03/21/2019 01:11 AM 0.000 0.000 0.000 0.000 0.000 Not Reported Not Reported
03/22/2019 03:43 PM 46.94 39.38 28.76 55.76 28.58 49.0 Not Reported 6.04 S 8.05 S 12.53 S No 0.000 No Precipitation 03/21/2019 01:06 AM 03/21/2019 01:11 AM 0.000 0.000 0.000 0.000 0.000 Not Reported Not Reported
03/22/2019 03:58 PM 47.66 39.92 29.66 55.76 28.58 48.0 Not Reported 7.83 S 7.38 SW 12.30 S No 0.000 No Precipitation 03/21/2019 01:06 AM 03/21/2019 01:11 AM 0.000 0.000 0.000 0.000 0.000 Not Reported Not Reported
03/22/2019 04:13 PM 47.12 39.74 30.02 55.76 28.58 49.0 Not Reported 12.30 SW 9.17 S 8.50 SW No 0.000 No Precipitation 03/21/2019 01:06 AM 03/21/2019 01:11 AM 0.000 0.000 0.000 0.000 0.000 Not Reported Not Reported
03/22/2019 04:28 PM 47.48 40.28 30.56 55.76 28.58 50.0 Not Reported 5.82 SE 4.70 SE 11.63 S No 0.000 No Precipitation 03/21/2019 01:06 AM 03/21/2019 01:11 AM 0.000 0.000 0.000 0.000 0.000 Not Reported Not Reported
03/22/2019 04:43 PM 46.94 39.92 30.74 55.76 28.58 52.0 Not Reported 8.05 W 7.83 W 11.41 S No 0.000 No Precipitation 03/21/2019 01:06 AM 03/21/2019 01:11 AM 0.000 0.000 0.000 0.000 0.000 Not Reported Not Reported
03/22/2019 04:58 PM 47.12 40.28 31.46 55.76 28.58 53.0 Not Reported 3.36 NW 6.71 NW 7.61 W No 0.000 No Precipitation 03/21/2019 01:06 AM 03/21/2019 01:11 AM 0.000 0.000 0.000 0.000 0.000 Not Reported Not Reported
03/22/2019 05:13 PM 47.66 40.46 31.28 55.76 28.58 52.0 Not Reported 3.80 W 3.80 S 10.74 W No 0.000 No Precipitation 03/21/2019 01:06 AM 03/21/2019 01:11 AM 0.000 0.000 0.000 0.000 0.000 Not Reported Not Reported
03/22/2019 05:28 PM 47.30 40.10 30.92 55.76 28.58 52.0 Not Reported 5.59 SW 1.57 SE 10.96 SW No 0.000 No Precipitation 03/21/2019 01:06 AM 03/21/2019 01:11 AM 0.000 0.000 0.000 0.000 0.000 Not Reported Not Reported
03/22/2019 05:43 PM 47.84 40.46 31.10 55.76 28.58 52.0 Not Reported 2.91 SE 3.36 SE 10.07 SW No 0.000 No Precipitation 03/21/2019 01:06 AM 03/21/2019 01:11 AM 0.000 0.000 0.000 0.000 0.000 Not Reported Not Reported
03/22/2019 05:58 PM 46.94 40.28 31.46 53.78 25.70 52.0 Not Reported 11.41 SW 14.32 SW 13.87 S No 0.000 No Precipitation 03/21/2019 01:06 AM 03/21/2019 01:11 AM 0.000 0.000 0.000 0.000 0.000 Not Reported Not Reported
03/22/2019 06:13 PM 47.66 40.46 31.46 53.78 25.70 52.0 Not Reported 9.62 SW 6.26 SW 15.21 SW No 0.000 No Precipitation 03/21/2019 01:06 AM 03/21/2019 01:11 AM 0.000 0.000 0.000 0.000 0.000 Not Reported Not Reported
03/22/2019 06:28 PM 48.56 41.00 31.28 53.78 25.70 50.0 Not Reported 6.04 NW 12.97 NW 8.95 NW No 0.000 No Precipitation 03/21/2019 01:06 AM 03/21/2019 01:11 AM 0.000 0.000 0.000 0.000 0.000 Not Reported Not Reported
03/22/2019 06:43 PM 46.58 39.74 31.10 53.78 25.70 54.0 Not Reported 9.84 S 12.08 SW 16.55 W No 0.000 No Precipitation 03/21/2019 01:06 AM 03/21/2019 01:11 AM 0.000 0.000 0.000 0.000 0.000 Not Reported Not Reported
03/22/2019 06:58 PM 46.22 39.74 31.10 53.78 25.70 54.0 Not Reported 9.17 SW 3.80 NW 14.76 SW No 0.000 No Precipitation 03/21/2019 01:06 AM 03/21/2019 01:11 AM 0.000 0.000 0.000 0.000 0.000 Not Reported Not Reported
03/22/2019 07:13 PM 46.04 39.56 31.10 53.78 25.70 55.0 Not Reported 6.93 SE 8.95 E 8.50 E No 0.000 No Precipitation 03/21/2019 01:06 AM 03/21/2019 01:11 AM 0.000 0.000 0.000 0.000 0.000 Not Reported Not Reported
03/22/2019 07:28 PM 45.50 39.38 31.46 53.78 25.70 57.0 Not Reported 4.25 NW 3.80 N 8.95 N No 0.000 No Precipitation 03/21/2019 01:06 AM 03/21/2019 01:11 AM 0.000 0.000 0.000 0.000 0.000 Not Reported Not Reported
03/22/2019 07:43 PM 44.78 39.20 31.82 53.78 25.70 59.0 Not Reported 9.17 NW 6.49 NW 10.07 N No 0.000 No Precipitation 03/21/2019 01:06 AM 03/21/2019 01:11 AM 0.000 0.000 0.000 0.000 0.000 Not Reported Not Reported
03/22/2019 07:58 PM 44.78 39.20 31.82 53.78 25.70 59.0 Not Reported 1.34 SE 0.89 E 5.59 W No 0.000 No Precipitation 03/21/2019 01:06 AM 03/21/2019 01:11 AM 0.000 0.000 0.000 0.000 0.000 Not Reported Not Reported
03/22/2019 08:13 PM 44.42 39.20 32.00 53.78 25.70 61.0 Not Reported 0.00 W 0.22 E 4.70 NE No 0.000 No Precipitation 03/21/2019 01:06 AM 03/21/2019 01:11 AM 0.000 0.000 0.000 0.000 0.000 Not Reported Not Reported
03/22/2019 08:28 PM 44.42 39.02 32.00 53.78 25.70 61.0 Not Reported 1.57 N 3.13 NW 4.47 N No 0.000 No Precipitation 03/21/2019 01:06 AM 03/21/2019 01:11 AM 0.000 0.000 0.000 0.000 0.000 Not Reported Not Reported
03/22/2019 08:43 PM 44.06 38.84 32.00 53.78 25.70 62.0 Not Reported 5.37 S 6.93 S 6.49 SE No 0.000 No Precipitation 03/21/2019 01:06 AM 03/21/2019 01:11 AM 0.000 0.000 0.000 0.000 0.000 Not Reported Not Reported
03/22/2019 08:58 PM 43.88 38.84 32.18 53.78 25.70 62.0 Not Reported 0.22 W 0.89 SE 5.59 W No 0.000 No Precipitation 03/21/2019 01:06 AM 03/21/2019 01:11 AM 0.000 0.000 0.000 0.000 0.000 Not Reported Not Reported
03/22/2019 09:13 PM 44.24 39.02 32.18 53.78 25.70 62.0 Not Reported 0.00 N 0.00 SE 4.03 SE No 0.000 No Precipitation 03/21/2019 01:06 AM 03/21/2019 01:11 AM 0.000 0.000 0.000 0.000 0.000 Not Reported Not Reported
03/22/2019 09:28 PM 43.70 38.84 32.72 53.78 25.70 64.0 Not Reported 2.24 SE 2.91 SE 2.68 SE No 0.000 No Precipitation 03/21/2019 01:06 AM 03/21/2019 01:11 AM 0.000 0.000 0.000 0.000 0.000 Not Reported Not Reported
03/22/2019 09:43 PM 43.16 38.66 32.72 53.78 25.70 66.0 Not Reported 0.89 NW 0.89 W 3.80 SE No 0.000 No Precipitation 03/21/2019 01:06 AM 03/21/2019 01:11 AM 0.000 0.000 0.000 0.000 0.000 Not Reported Not Reported
03/22/2019 09:58 PM 43.16 38.66 32.72 53.78 25.70 66.0 Not Reported 4.70 NE 4.25 NE 5.59 NE No 0.000 No Precipitation 03/21/2019 01:06 AM 03/21/2019 01:11 AM 0.000 0.000 0.000 0.000 0.000 Not Reported Not Reported
03/22/2019 10:13 PM 42.62 38.66 33.44 53.78 25.70 69.0 Not Reported 4.47 N 4.70 N 4.25 NE No 0.000 No Precipitation 03/21/2019 01:06 AM 03/21/2019 01:11 AM 0.000 0.000 0.000 0.000 0.000 Not Reported Not Reported
03/22/2019 10:28 PM 41.90 38.30 33.62 53.78 25.70 72.0 Not Reported 1.12 NW 0.89 NW 4.03 N No 0.000 No Precipitation 03/21/2019 01:06 AM 03/21/2019 01:11 AM 0.000 0.000 0.000 0.000 0.000 Not Reported Not Reported
03/22/2019 10:43 PM 41.72 38.12 33.62 53.78 25.70 73.0 Not Reported 2.24 E 0.00 NE 1.79 W No 0.000 No Precipitation 03/21/2019 01:06 AM 03/21/2019 01:11 AM 0.000 0.000 0.000 0.000 0.000 Not Reported Not Reported
03/22/2019 10:58 PM 41.36 38.12 33.80 53.78 25.70 74.0 Not Reported 0.89 NW 0.67 NW 1.34 NE No 0.000 No Precipitation 03/21/2019 01:06 AM 03/21/2019 01:11 AM 0.000 0.000 0.000 0.000 0.000 Not Reported Not Reported
03/22/2019 11:13 PM 41.18 38.12 33.98 53.78 25.70 75.0 Not Reported 2.24 N 2.24 N 3.13 NE No 0.000 No Precipitation 03/21/2019 01:06 AM 03/21/2019 01:11 AM 0.000 0.000 0.000 0.000 0.000 Not Reported Not Reported
03/22/2019 11:28 PM 40.82 37.94 34.16 53.78 25.70 76.0 Not Reported 1.34 E 1.34 NE 2.01 E No 0.000 No Precipitation 03/21/2019 01:06 AM 03/21/2019 01:11 AM 0.000 0.000 0.000 0.000 0.000 Not Reported Not Reported
03/22/2019 11:43 PM 40.28 37.58 33.80 53.78 25.70 77.0 Not Reported 1.12 N 0.00 W 2.24 NE No 0.000 No Precipitation 03/21/2019 01:06 AM 03/21/2019 01:11 AM 0.000 0.000 0.000 0.000 0.000 Not Reported Not Reported
03/22/2019 11:58 PM 39.92 37.40 34.16 53.78 25.70 80.0 Not Reported 0.45 NE 1.12 NW 2.46 S No 0.000 No Precipitation 03/21/2019 01:06 AM 03/21/2019 01:11 AM 0.000 0.000 0.000 0.000 0.000 Not Reported Not Reported